createdAt,value
2022-12-25T00:00:08.040Z,10.10
2022-12-25T00:03:51.175Z,10.10
2022-12-25T00:07:33.368Z,10.10
2022-12-25T00:11:18.055Z,10.10
2022-12-25T00:15:00.000Z,10.00
2022-12-25T00:18:41.962Z,10.00
2022-12-25T00:22:23.958Z,10.00
2022-12-25T00:26:08.971Z,10.10
2022-12-25T00:29:50.926Z,10.00
2022-12-25T00:33:35.631Z,10.10
2022-12-25T00:37:17.579Z,10.00
2022-12-25T00:40:59.552Z,10.10
2022-12-25T00:44:41.509Z,10.10
2022-12-25T00:48:23.894Z,10.10
2022-12-25T00:52:05.884Z,10.10
2022-12-25T00:55:52.750Z,10.10
2022-12-25T00:59:34.873Z,10.10
2022-12-25T01:03:18.174Z,10.10
2022-12-25T01:07:00.178Z,10.10
2022-12-25T01:10:42.131Z,10.10
2022-12-25T01:14:24.162Z,10.10
2022-12-25T01:18:08.025Z,10.10
2022-12-25T01:21:51.186Z,10.10
2022-12-25T01:25:35.504Z,10.10
2022-12-25T01:29:17.474Z,10.00
2022-12-25T01:32:59.751Z,10.10
2022-12-25T01:36:41.767Z,10.00
2022-12-25T01:40:23.728Z,10.00
2022-12-25T01:44:08.911Z,10.00
2022-12-25T01:47:51.149Z,10.00
2022-12-25T01:51:41.431Z,10.00
2022-12-25T01:55:24.287Z,10.00
2022-12-25T01:59:08.192Z,10.00
2022-12-25T02:02:51.186Z,10.00
2022-12-25T02:06:34.847Z,10.00
2022-12-25T02:10:17.758Z,10.00
2022-12-25T02:13:59.808Z,10.00
2022-12-25T02:17:46.123Z,10.00
2022-12-25T02:22:06.220Z,10.00
2022-12-25T02:25:48.126Z,10.00
2022-12-25T02:29:49.729Z,10.00
2022-12-25T02:34:03.060Z,10.00
2022-12-25T02:38:08.499Z,10.00
2022-12-25T02:41:54.081Z,10.00
2022-12-25T02:46:18.661Z,10.00
2022-12-25T02:50:20.276Z,10.00
2022-12-25T02:54:25.901Z,10.00
2022-12-25T02:58:32.185Z,10.00
2022-12-25T03:02:35.450Z,10.00
2022-12-25T03:06:38.301Z,10.00
2022-12-25T03:10:40.992Z,10.00
2022-12-25T03:14:41.630Z,10.10
2022-12-25T03:18:26.881Z,10.10
2022-12-25T03:22:31.989Z,10.10
2022-12-25T03:26:32.560Z,10.20
2022-12-25T03:30:32.977Z,10.30
2022-12-25T03:34:45.570Z,10.30
2022-12-25T03:38:48.735Z,10.30
2022-12-25T03:42:44.316Z,10.30
2022-12-25T03:46:50.916Z,10.30
2022-12-25T03:51:00.288Z,10.30
2022-12-25T03:55:03.359Z,10.20
2022-12-25T03:59:23.156Z,10.20
2022-12-25T04:03:24.642Z,10.20
2022-12-25T04:07:25.491Z,10.20
2022-12-25T04:11:26.158Z,10.10
2022-12-25T04:15:27.111Z,10.10
2022-12-25T04:19:28.954Z,10.10
2022-12-25T04:23:29.356Z,10.10
2022-12-25T04:27:29.772Z,10.10
2022-12-25T04:31:30.231Z,10.00
2022-12-25T04:35:30.989Z,10.00
2022-12-25T04:39:13.008Z,10.00
2022-12-25T04:42:54.971Z,9.90
2022-12-25T04:46:36.976Z,9.90
2022-12-25T04:50:19.075Z,9.90
2022-12-25T04:54:01.050Z,9.80
2022-12-25T04:57:43.004Z,9.80
2022-12-25T05:01:25.056Z,9.80
2022-12-25T05:05:07.419Z,9.80
2022-12-25T05:08:49.423Z,9.80
2022-12-25T05:12:31.396Z,9.80
2022-12-25T05:16:18.223Z,9.90
2022-12-25T05:20:00.259Z,9.90
2022-12-25T05:23:48.627Z,9.90
2022-12-25T05:27:30.798Z,9.90
2022-12-25T05:31:12.846Z,10.00
2022-12-25T05:34:54.911Z,10.00
2022-12-25T05:38:37.481Z,10.00
2022-12-25T05:42:19.487Z,10.00
2022-12-25T05:46:06.792Z,10.10
2022-12-25T05:49:48.776Z,10.10
2022-12-25T05:53:30.726Z,10.10
2022-12-25T05:57:12.763Z,10.10
2022-12-25T06:00:54.929Z,10.10
2022-12-25T06:04:36.941Z,10.10
2022-12-25T06:08:18.923Z,10.10
2022-12-25T06:12:00.863Z,10.10
2022-12-25T06:15:42.859Z,10.20
2022-12-25T06:19:24.823Z,10.20
2022-12-25T06:23:06.830Z,10.30
2022-12-25T06:26:49.279Z,10.30
2022-12-25T06:30:31.248Z,10.40
2022-12-25T06:34:16.516Z,10.40
2022-12-25T06:37:58.498Z,10.40
2022-12-25T06:41:40.470Z,10.40
2022-12-25T06:45:22.521Z,10.50
2022-12-25T06:49:04.479Z,10.50
2022-12-25T06:52:46.441Z,10.50
2022-12-25T06:56:28.746Z,10.50
2022-12-25T07:00:11.225Z,10.50
2022-12-25T07:03:56.851Z,10.50
2022-12-25T07:07:38.832Z,10.40
2022-12-25T07:11:21.483Z,10.40
2022-12-25T07:15:03.636Z,10.40
2022-12-25T07:18:45.643Z,10.40
2022-12-25T07:22:29.204Z,10.40
2022-12-25T07:26:12.979Z,10.40
2022-12-25T07:29:54.940Z,10.40
2022-12-25T07:33:37.139Z,10.40
2022-12-25T07:37:19.061Z,10.50
2022-12-25T07:41:01.176Z,10.50
2022-12-25T07:44:43.114Z,10.50
2022-12-25T07:48:26.306Z,10.50
2022-12-25T07:52:08.230Z,10.50
2022-12-25T07:56:00.361Z,10.60
2022-12-25T07:59:42.370Z,10.60
2022-12-25T08:03:24.445Z,10.50
2022-12-25T08:07:06.624Z,10.50
2022-12-25T08:10:48.661Z,10.50
2022-12-25T08:14:30.620Z,10.50
2022-12-25T08:18:12.590Z,10.50
2022-12-25T08:21:54.766Z,10.50
2022-12-25T08:25:36.739Z,10.50
2022-12-25T08:29:18.730Z,10.50
2022-12-25T08:33:00.865Z,10.50
2022-12-25T08:36:42.943Z,10.50
2022-12-25T08:40:25.021Z,10.50
2022-12-25T08:44:07.273Z,10.50
2022-12-25T08:47:53.560Z,10.50
2022-12-25T08:51:37.382Z,10.50
2022-12-25T08:55:19.383Z,10.50
2022-12-25T08:59:01.345Z,10.60
2022-12-25T09:02:43.435Z,10.60
2022-12-25T09:06:25.520Z,10.60
2022-12-25T09:10:08.071Z,10.60
2022-12-25T09:13:50.121Z,10.60
2022-12-25T09:17:33.057Z,10.60
2022-12-25T09:21:16.292Z,10.60
2022-12-25T09:24:58.268Z,10.60
2022-12-25T09:28:45.152Z,10.60
2022-12-25T09:32:30.694Z,10.60
2022-12-25T09:36:12.768Z,10.70
2022-12-25T09:39:54.785Z,10.70
2022-12-25T09:43:44.558Z,10.70
2022-12-25T09:47:29.749Z,10.70
2022-12-25T09:51:16.590Z,10.80
2022-12-25T09:55:01.182Z,10.80
2022-12-25T09:58:43.694Z,10.90
2022-12-25T10:02:50.205Z,10.90
2022-12-25T10:06:39.344Z,10.90
2022-12-25T10:10:37.744Z,10.90
2022-12-25T10:14:35.412Z,10.90
2022-12-25T10:18:55.839Z,11.00
2022-12-25T10:22:45.080Z,11.00
2022-12-25T10:26:30.974Z,11.00
2022-12-25T10:30:19.789Z,11.00
2022-12-25T10:34:02.379Z,11.10
2022-12-25T10:37:46.855Z,11.10
2022-12-25T10:41:39.588Z,11.10
2022-12-25T10:45:21.563Z,11.10
2022-12-25T10:49:04.270Z,11.10
2022-12-25T10:53:01.175Z,11.20
2022-12-25T10:56:56.829Z,11.20
2022-12-25T11:00:38.881Z,11.30
2022-12-25T11:04:24.837Z,11.30
2022-12-25T11:08:21.418Z,11.30
2022-12-25T11:12:03.698Z,11.30
2022-12-25T11:15:49.055Z,11.40
2022-12-25T11:19:32.803Z,11.40
2022-12-25T11:23:21.503Z,11.40
2022-12-25T11:27:06.481Z,11.40
2022-12-25T11:30:54.519Z,11.50
2022-12-25T11:34:48.577Z,11.40
2022-12-25T11:38:30.789Z,11.40
2022-12-25T11:42:22.830Z,11.40
2022-12-25T11:46:15.058Z,11.40
2022-12-25T11:50:02.990Z,11.40
2022-12-25T11:53:52.616Z,11.40
2022-12-25T11:57:35.781Z,11.40
2022-12-25T12:01:38.205Z,11.40
2022-12-25T12:05:29.181Z,11.40
2022-12-25T12:09:33.111Z,11.40
2022-12-25T12:13:21.126Z,11.50
2022-12-25T12:17:03.276Z,11.40
2022-12-25T12:20:45.620Z,11.50
2022-12-25T12:24:39.268Z,11.50
2022-12-25T12:28:25.765Z,11.50
2022-12-25T12:32:42.009Z,11.40
2022-12-25T12:36:35.445Z,11.40
2022-12-25T12:40:41.643Z,11.30
2022-12-25T12:44:26.920Z,11.30
2022-12-25T12:48:16.834Z,11.30
2022-12-25T12:52:23.523Z,11.20
2022-12-25T12:56:16.809Z,11.10
2022-12-25T13:00:04.781Z,11.10
2022-12-25T13:04:30.032Z,11.00
2022-12-25T13:08:30.860Z,10.80
2022-12-25T13:12:15.130Z,10.70
2022-12-25T13:15:58.093Z,10.70
2022-12-25T13:19:43.609Z,10.60
2022-12-25T13:23:36.824Z,10.60
2022-12-25T13:27:24.349Z,10.60
2022-12-25T13:31:30.930Z,10.60
2022-12-25T13:35:17.006Z,10.70
2022-12-25T13:38:59.615Z,10.80
2022-12-25T13:42:48.101Z,10.80
2022-12-25T13:46:30.354Z,10.70
2022-12-25T13:50:25.180Z,10.60
2022-12-25T13:54:09.289Z,10.40
2022-12-25T13:57:57.856Z,10.10
2022-12-25T14:01:43.657Z,9.80
2022-12-25T14:05:42.845Z,9.60
2022-12-25T14:09:25.711Z,9.50
2022-12-25T14:13:12.065Z,9.50
2022-12-25T14:16:57.309Z,9.50
2022-12-25T14:20:42.807Z,9.40
2022-12-25T14:24:27.554Z,9.50
2022-12-25T14:28:27.180Z,9.50
2022-12-25T14:32:17.010Z,9.50
2022-12-25T14:35:59.818Z,9.50
2022-12-25T14:39:41.803Z,9.60
2022-12-25T14:43:27.152Z,9.60
2022-12-25T14:47:18.950Z,9.70
2022-12-25T14:51:03.156Z,9.80
2022-12-25T14:54:53.087Z,9.80
2022-12-25T14:58:41.730Z,9.90
2022-12-25T15:02:24.490Z,9.90
2022-12-25T15:06:19.436Z,10.00
2022-12-25T15:10:46.957Z,9.90
2022-12-25T15:14:03.429Z,9.90
2022-12-25T15:17:45.461Z,9.80
2022-12-25T15:21:33.242Z,9.80
2022-12-25T15:25:15.319Z,9.80
2022-12-25T15:28:58.283Z,9.70
2022-12-25T15:32:40.555Z,9.70
2022-12-25T15:36:23.197Z,9.70
2022-12-25T15:40:06.714Z,9.60
2022-12-25T15:43:48.877Z,9.60
2022-12-25T15:47:32.675Z,9.60
2022-12-25T15:51:14.609Z,9.60
2022-12-25T15:54:56.574Z,9.60
2022-12-25T15:58:38.709Z,9.50
2022-12-25T16:02:21.572Z,9.50
2022-12-25T16:06:03.747Z,9.50
2022-12-25T16:09:46.213Z,9.40
2022-12-25T16:13:28.118Z,9.40
2022-12-25T16:17:15.599Z,9.40
2022-12-25T16:20:59.304Z,9.40
2022-12-25T16:24:41.332Z,9.40
2022-12-25T16:28:23.299Z,9.40
2022-12-25T16:32:05.257Z,9.30
2022-12-25T16:35:48.099Z,9.30
2022-12-25T16:39:30.091Z,9.30
2022-12-25T16:43:12.073Z,9.30
2022-12-25T16:46:54.130Z,9.20
2022-12-25T16:50:39.441Z,9.20
2022-12-25T16:54:22.109Z,9.10
2022-12-25T16:58:05.011Z,9.10
2022-12-25T17:01:47.065Z,9.10
2022-12-25T17:05:29.204Z,9.10
2022-12-25T17:09:11.189Z,9.10
2022-12-25T17:12:53.161Z,9.10
2022-12-25T17:16:37.328Z,9.30
2022-12-25T17:20:19.351Z,9.30
2022-12-25T17:24:03.666Z,9.40
2022-12-25T17:27:50.440Z,9.40
2022-12-25T17:31:32.636Z,9.40
2022-12-25T17:35:18.002Z,9.40
2022-12-25T17:39:01.981Z,9.50
2022-12-25T17:42:43.940Z,9.50
2022-12-25T17:46:28.041Z,9.60
2022-12-25T17:50:10.149Z,9.60
2022-12-25T17:53:54.546Z,9.60
2022-12-25T17:57:36.621Z,9.60
2022-12-25T18:01:18.738Z,9.60
2022-12-25T18:05:00.848Z,9.70
2022-12-25T18:08:44.157Z,9.80
2022-12-25T18:12:26.132Z,9.80
2022-12-25T18:16:08.670Z,9.80
2022-12-25T18:19:51.471Z,9.80
2022-12-25T18:23:33.735Z,9.80
2022-12-25T18:27:15.798Z,9.80
2022-12-25T18:30:58.043Z,9.80
2022-12-25T18:34:39.990Z,9.80
2022-12-25T18:38:21.982Z,9.80
2022-12-25T18:42:22.579Z,9.90
2022-12-25T18:46:06.291Z,9.80
2022-12-25T18:49:48.694Z,9.80
2022-12-25T18:53:31.432Z,9.80
2022-12-25T18:57:13.425Z,9.80
2022-12-25T19:00:55.567Z,9.70
2022-12-25T19:04:37.536Z,9.60
2022-12-25T19:08:19.523Z,9.60
2022-12-25T19:12:01.515Z,9.50
2022-12-25T19:15:43.710Z,9.40
2022-12-25T19:19:26.071Z,9.30
2022-12-25T19:23:08.839Z,9.20
2022-12-25T19:26:51.401Z,9.10
2022-12-25T19:30:33.410Z,9.10
2022-12-25T19:34:15.479Z,9.00
2022-12-25T19:37:57.461Z,8.90
2022-12-25T19:41:39.684Z,8.80
2022-12-25T19:45:21.935Z,8.80
2022-12-25T19:49:04.605Z,8.80
2022-12-25T19:52:46.571Z,8.80
2022-12-25T19:56:31.092Z,8.80
2022-12-25T20:00:13.324Z,8.80
2022-12-25T20:03:55.964Z,8.80
2022-12-25T20:07:37.910Z,8.80
2022-12-25T20:11:21.139Z,8.90
2022-12-25T20:15:03.241Z,8.90
2022-12-25T20:18:45.241Z,8.90
2022-12-25T20:22:27.172Z,8.90
2022-12-25T20:26:10.184Z,8.90
2022-12-25T20:29:52.143Z,8.90
2022-12-25T20:33:35.287Z,8.90
2022-12-25T20:37:17.226Z,8.90
2022-12-25T20:45:07.653Z,8.80
2022-12-25T20:48:49.764Z,8.80
2022-12-25T20:52:31.771Z,8.80
2022-12-25T20:56:16.535Z,8.80
2022-12-25T20:59:58.476Z,8.80
2022-12-25T21:03:41.208Z,8.80
2022-12-25T21:07:23.248Z,8.80
2022-12-25T21:11:05.737Z,8.80
2022-12-25T21:14:47.688Z,8.80
2022-12-25T21:18:29.891Z,8.80
2022-12-25T21:22:12.314Z,8.80
2022-12-25T21:25:54.997Z,8.80
2022-12-25T21:29:37.080Z,8.80
2022-12-25T21:33:38.003Z,8.70
2022-12-25T21:37:20.035Z,8.80
2022-12-25T21:41:07.155Z,8.80
2022-12-25T21:44:49.121Z,8.80
2022-12-25T21:48:31.592Z,8.70
2022-12-25T21:52:13.604Z,8.80
2022-12-25T21:56:04.188Z,8.80
2022-12-25T21:59:46.279Z,8.80
2022-12-25T22:03:28.383Z,8.80
2022-12-25T22:07:19.284Z,8.90
2022-12-25T22:11:04.371Z,8.90
2022-12-25T22:14:55.386Z,9.00
2022-12-25T22:18:56.395Z,9.10
2022-12-25T22:22:38.479Z,9.10
2022-12-25T22:26:21.172Z,9.10
2022-12-25T22:30:04.577Z,9.10
2022-12-25T22:33:46.498Z,9.20
2022-12-25T22:37:28.531Z,9.20
2022-12-25T22:41:10.565Z,9.20
2022-12-25T22:44:52.676Z,9.20
2022-12-25T22:48:34.622Z,9.30
2022-12-25T22:52:16.763Z,9.20
2022-12-25T22:55:58.715Z,9.30
2022-12-25T22:59:40.743Z,9.30
2022-12-25T23:03:22.837Z,9.40
2022-12-25T23:07:04.954Z,9.40
2022-12-25T23:10:46.982Z,9.40
2022-12-25T23:14:41.062Z,9.40
2022-12-25T23:18:41.632Z,9.40
2022-12-25T23:22:42.691Z,9.50
2022-12-25T23:26:24.668Z,9.50
2022-12-25T23:30:15.222Z,9.50
2022-12-25T23:33:57.481Z,9.50
2022-12-25T23:37:39.460Z,9.50
2022-12-25T23:41:21.480Z,9.60
2022-12-25T23:45:03.500Z,9.50
2022-12-25T23:48:45.972Z,9.60
2022-12-25T23:52:27.935Z,9.60
2022-12-25T23:56:10.674Z,9.50
2022-12-25T23:59:52.667Z,9.60
